createdAt,value
2017-07-23T00:01:58.971Z,9.80
2017-07-23T00:04:26.474Z,9.83
2017-07-23T00:06:54.087Z,10.53
2017-07-23T00:09:21.583Z,10.47
2017-07-23T00:11:49.139Z,11.43
2017-07-23T00:14:16.631Z,11.10
2017-07-23T00:16:44.129Z,11.10
2017-07-23T00:19:11.647Z,11.67
2017-07-23T00:21:39.177Z,11.30
2017-07-23T00:24:06.693Z,10.80
2017-07-23T00:26:34.200Z,11.97
2017-07-23T00:29:01.711Z,10.83
2017-07-23T00:31:29.289Z,12.70
2017-07-23T00:33:56.768Z,10.77
2017-07-23T00:36:25.104Z,11.40
2017-07-23T00:38:52.611Z,10.43
2017-07-23T00:41:20.082Z,10.30
2017-07-23T00:43:47.653Z,9.97
2017-07-23T00:46:15.087Z,10.40
2017-07-23T00:48:42.600Z,10.33
2017-07-23T00:51:10.052Z,11.60
2017-07-23T00:53:37.779Z,10.20
2017-07-23T00:56:05.274Z,9.07
2017-07-23T00:58:32.771Z,8.90
2017-07-23T01:01:00.289Z,8.80
2017-07-23T01:03:27.803Z,9.50
2017-07-23T01:05:55.429Z,8.80
2017-07-23T01:08:23.739Z,8.20
2017-07-23T01:10:51.254Z,10.40
2017-07-23T01:13:18.769Z,9.20
2017-07-23T01:15:46.389Z,8.70
2017-07-23T01:18:13.876Z,8.37
2017-07-23T01:20:41.315Z,7.20
2017-07-23T01:23:09.796Z,7.03
2017-07-23T01:25:37.256Z,7.20
2017-07-23T01:28:04.830Z,6.67
2017-07-23T01:30:32.395Z,6.80
2017-07-23T01:32:59.926Z,5.80
2017-07-23T01:35:27.424Z,7.03
2017-07-23T01:37:54.921Z,6.30
2017-07-23T01:40:22.370Z,5.77
2017-07-23T01:42:49.833Z,6.50
2017-07-23T01:45:17.292Z,7.13
2017-07-23T01:47:44.870Z,6.00
2017-07-23T01:50:12.395Z,5.47
2017-07-23T01:52:39.835Z,5.17
2017-07-23T01:55:07.397Z,5.00
2017-07-23T01:57:34.860Z,5.07
2017-07-23T02:00:02.375Z,5.20
2017-07-23T02:02:29.906Z,4.67
2017-07-23T02:04:57.366Z,5.33
2017-07-23T02:07:24.831Z,4.03
2017-07-23T02:09:52.324Z,4.63
2017-07-23T02:12:19.786Z,5.13
2017-07-23T02:14:47.279Z,4.50
2017-07-23T02:17:14.983Z,4.27
2017-07-23T02:19:42.543Z,3.97
2017-07-23T02:22:10.070Z,4.90
2017-07-23T02:24:37.651Z,4.80
2017-07-23T02:27:05.132Z,4.33
2017-07-23T02:29:32.631Z,5.17
2017-07-23T02:32:00.144Z,4.40
2017-07-23T02:34:27.579Z,5.10
2017-07-23T02:36:55.100Z,5.30
2017-07-23T02:39:22.571Z,5.40
2017-07-23T02:41:50.080Z,4.50
2017-07-23T02:44:17.526Z,5.23
2017-07-23T02:46:45.091Z,5.20
2017-07-23T02:49:12.646Z,5.20
2017-07-23T02:51:40.160Z,4.90
2017-07-23T02:54:07.673Z,4.77
2017-07-23T02:56:35.198Z,5.27
2017-07-23T02:59:02.769Z,5.47
2017-07-23T03:01:30.239Z,7.97
2017-07-23T03:03:57.931Z,5.33
2017-07-23T03:06:25.416Z,6.10
2017-07-23T03:08:52.918Z,6.00
2017-07-23T03:11:20.427Z,6.50
2017-07-23T03:13:47.967Z,5.70
2017-07-23T03:16:15.467Z,6.10
2017-07-23T03:18:42.926Z,6.50
2017-07-23T03:21:10.411Z,5.97
2017-07-23T03:23:37.855Z,6.40
2017-07-23T03:26:05.328Z,6.70
2017-07-23T03:28:32.847Z,6.77
2017-07-23T03:31:00.891Z,6.03
2017-07-23T03:33:28.420Z,6.70
2017-07-23T03:35:55.879Z,6.33
2017-07-23T03:38:23.381Z,7.10
2017-07-23T03:40:50.878Z,8.67
2017-07-23T03:43:18.326Z,7.40
2017-07-23T03:45:46.013Z,7.50
2017-07-23T03:48:13.474Z,7.80
2017-07-23T03:50:41.090Z,6.57
2017-07-23T03:53:08.634Z,7.13
2017-07-23T03:55:36.098Z,7.10
2017-07-23T03:58:03.544Z,6.20
2017-07-23T04:00:31.039Z,6.70
2017-07-23T04:02:59.691Z,7.03
2017-07-23T04:05:27.162Z,5.53
2017-07-23T04:07:54.735Z,6.17
2017-07-23T04:10:22.169Z,6.30
2017-07-23T04:12:50.791Z,5.47
2017-07-23T04:15:18.271Z,5.20
2017-07-23T04:17:45.815Z,5.50
2017-07-23T04:20:13.278Z,5.30
2017-07-23T04:22:40.753Z,6.60
2017-07-23T04:25:08.244Z,5.27
2017-07-23T04:27:35.664Z,5.57
2017-07-23T04:30:03.215Z,5.47
2017-07-23T04:32:30.711Z,5.30
2017-07-23T04:34:58.142Z,4.63
2017-07-23T04:37:25.583Z,5.00
2017-07-23T04:39:53.887Z,5.87
2017-07-23T04:42:21.327Z,5.30
2017-07-23T04:44:49.578Z,5.60
2017-07-23T04:47:17.099Z,5.60
2017-07-23T04:49:44.567Z,5.40
2017-07-23T04:52:12.046Z,5.93
2017-07-23T04:54:39.623Z,5.90
2017-07-23T04:57:07.163Z,5.70
2017-07-23T04:59:34.675Z,5.97
2017-07-23T05:02:02.142Z,5.37
2017-07-23T05:04:29.652Z,5.77
2017-07-23T05:06:57.101Z,6.70
2017-07-23T05:09:24.568Z,6.90
2017-07-23T05:11:52.098Z,6.60
2017-07-23T05:14:19.554Z,6.67
2017-07-23T05:16:47.289Z,5.97
2017-07-23T05:19:14.838Z,6.93
2017-07-23T05:21:42.325Z,5.90
2017-07-23T05:24:09.803Z,5.97
2017-07-23T05:26:37.316Z,6.20
2017-07-23T05:29:04.773Z,5.73
2017-07-23T05:31:42.001Z,6.03
2017-07-23T05:34:09.544Z,5.77
2017-07-23T05:36:36.988Z,5.60
2017-07-23T05:39:04.735Z,4.50
2017-07-23T05:41:32.264Z,4.80
2017-07-23T05:43:59.732Z,4.53
2017-07-23T05:46:27.187Z,4.70
2017-07-23T05:48:54.684Z,4.40
2017-07-23T05:51:22.248Z,4.00
2017-07-23T05:53:51.932Z,3.97
2017-07-23T05:56:19.448Z,3.93
2017-07-23T05:58:46.914Z,4.00
2017-07-23T06:01:14.360Z,4.27
2017-07-23T06:03:41.828Z,4.03
2017-07-23T06:06:09.743Z,3.83
2017-07-23T06:08:37.279Z,3.70
2017-07-23T06:11:04.787Z,3.53
2017-07-23T06:13:33.668Z,2.80
2017-07-23T06:16:01.239Z,2.63
2017-07-23T06:18:28.717Z,2.83
2017-07-23T06:20:56.180Z,2.60
2017-07-23T06:23:23.834Z,2.13
2017-07-23T06:25:51.337Z,2.30
2017-07-23T06:28:18.821Z,1.90
2017-07-23T06:30:46.371Z,1.87
2017-07-23T06:33:14.016Z,2.13
2017-07-23T06:35:41.496Z,2.10
2017-07-23T06:38:09.475Z,1.90
2017-07-23T06:40:36.944Z,2.03
2017-07-23T06:43:04.421Z,1.90
2017-07-23T06:45:31.915Z,2.60
2017-07-23T06:47:59.524Z,2.10
2017-07-23T06:50:26.962Z,2.07
2017-07-23T06:52:54.446Z,2.30
2017-07-23T06:55:21.897Z,1.90
2017-07-23T06:57:49.423Z,2.20
2017-07-23T07:00:16.961Z,2.20
2017-07-23T07:02:44.443Z,2.00
2017-07-23T07:05:11.943Z,1.90
2017-07-23T07:07:39.409Z,2.10
2017-07-23T07:10:06.873Z,2.20
2017-07-23T07:12:34.402Z,2.40
2017-07-23T07:15:01.853Z,2.47
2017-07-23T07:17:31.163Z,1.43
2017-07-23T07:19:58.762Z,2.30
2017-07-23T07:22:26.306Z,1.83
2017-07-23T07:24:54.085Z,2.03
2017-07-23T07:27:21.763Z,1.90
2017-07-23T07:29:49.270Z,1.60
2017-07-23T07:32:21.480Z,1.83
2017-07-23T07:34:49.033Z,1.50
2017-07-23T07:37:16.555Z,1.83
2017-07-23T07:39:44.050Z,1.80
2017-07-23T07:42:11.751Z,2.00
2017-07-23T07:44:39.268Z,2.03
2017-07-23T07:47:06.747Z,2.40
2017-07-23T07:49:34.328Z,2.30
2017-07-23T07:52:01.812Z,2.23
2017-07-23T07:54:29.283Z,2.60
2017-07-23T07:56:56.839Z,2.20
2017-07-23T07:59:24.394Z,2.40
2017-07-23T08:01:52.017Z,2.30
2017-07-23T08:04:19.650Z,2.43
2017-07-23T08:06:48.553Z,2.50
2017-07-23T08:09:17.506Z,2.90
2017-07-23T08:11:45.159Z,2.40
2017-07-23T08:14:12.742Z,2.73
2017-07-23T08:16:40.261Z,2.40
2017-07-23T08:19:07.777Z,2.80
2017-07-23T08:21:35.394Z,2.53
2017-07-23T08:24:02.947Z,2.10
2017-07-23T08:26:30.662Z,2.40
2017-07-23T08:28:59.236Z,2.60
2017-07-23T08:31:26.878Z,2.80
2017-07-23T08:33:55.117Z,2.90
2017-07-23T08:36:22.614Z,2.83
2017-07-23T08:38:50.091Z,3.37
2017-07-23T08:41:17.730Z,3.60
2017-07-23T08:43:45.306Z,3.53
2017-07-23T08:46:12.886Z,3.30
2017-07-23T08:48:40.404Z,3.30
2017-07-23T08:51:07.950Z,3.67
2017-07-23T08:53:35.427Z,3.20
2017-07-23T08:56:02.999Z,3.43
2017-07-23T08:58:30.596Z,2.90
2017-07-23T09:00:58.296Z,3.40
2017-07-23T09:03:25.858Z,3.23
2017-07-23T09:05:53.415Z,2.47
2017-07-23T09:08:20.865Z,2.43
2017-07-23T09:10:48.739Z,3.33
2017-07-23T09:13:18.003Z,2.80
2017-07-23T09:15:47.753Z,2.40
2017-07-23T09:18:15.280Z,2.50
2017-07-23T09:20:43.023Z,2.80
2017-07-23T09:23:11.438Z,3.17
2017-07-23T09:25:41.693Z,2.57
2017-07-23T09:28:09.228Z,2.70
2017-07-23T09:30:36.869Z,3.27
2017-07-23T09:33:04.470Z,3.00
2017-07-23T09:35:32.027Z,2.70
2017-07-23T09:37:59.554Z,3.20
2017-07-23T09:40:28.539Z,3.50
2017-07-23T09:42:56.243Z,3.23
2017-07-23T09:45:23.857Z,2.90
2017-07-23T09:47:51.336Z,3.60
2017-07-23T09:50:19.237Z,3.30
2017-07-23T09:52:46.782Z,3.63
2017-07-23T09:55:14.246Z,3.30
2017-07-23T09:57:41.720Z,3.20
2017-07-23T10:00:09.723Z,3.70
2017-07-23T10:02:37.364Z,3.47
2017-07-23T10:05:04.874Z,3.07
2017-07-23T10:07:32.310Z,3.10
2017-07-23T10:09:59.836Z,3.50
2017-07-23T10:12:27.375Z,3.83
2017-07-23T10:14:54.877Z,3.27
2017-07-23T10:17:22.362Z,3.20
2017-07-23T10:19:51.090Z,2.93
2017-07-23T10:22:18.685Z,3.20
2017-07-23T10:24:46.340Z,3.10
2017-07-23T10:27:13.831Z,5.60
2017-07-23T10:29:41.429Z,4.83
2017-07-23T10:32:09.347Z,5.60
2017-07-23T10:34:36.940Z,4.10
2017-07-23T10:37:05.483Z,4.20
2017-07-23T10:39:33.021Z,4.93
2017-07-23T10:42:00.524Z,3.90
2017-07-23T10:44:28.074Z,3.90
2017-07-23T10:46:55.595Z,3.40
2017-07-23T10:49:24.416Z,4.10
2017-07-23T10:51:51.875Z,3.40
2017-07-23T10:54:19.583Z,3.70
2017-07-23T10:56:47.162Z,3.20
2017-07-23T10:59:14.759Z,3.43
2017-07-23T11:01:43.098Z,3.33
2017-07-23T11:04:10.799Z,3.67
2017-07-23T11:06:38.367Z,3.90
2017-07-23T11:09:05.914Z,3.47
2017-07-23T11:11:33.391Z,4.60
2017-07-23T11:14:00.884Z,5.10
2017-07-23T11:16:28.476Z,3.37
2017-07-23T11:18:55.935Z,3.13
2017-07-23T11:21:23.469Z,3.00
2017-07-23T11:23:50.971Z,3.10
2017-07-23T11:26:18.488Z,3.40
2017-07-23T11:28:46.086Z,2.90
2017-07-23T11:31:13.572Z,3.87
2017-07-23T11:33:41.554Z,3.10
2017-07-23T11:36:09.094Z,3.13
2017-07-23T11:38:36.571Z,2.70
2017-07-23T11:41:04.747Z,3.10
2017-07-23T11:43:34.169Z,2.83
2017-07-23T11:46:01.803Z,2.47
2017-07-23T11:48:29.318Z,3.10
2017-07-23T11:50:56.803Z,2.80
2017-07-23T11:53:24.339Z,2.60
2017-07-23T11:55:51.967Z,2.80
2017-07-23T11:58:19.562Z,2.90
2017-07-23T12:00:47.042Z,2.60
2017-07-23T12:03:14.511Z,2.57
2017-07-23T12:05:42.112Z,2.60
2017-07-23T12:08:09.694Z,2.30
2017-07-23T12:10:37.305Z,2.50
2017-07-23T12:13:04.775Z,2.43
2017-07-23T12:15:33.142Z,2.63
2017-07-23T12:18:00.667Z,3.60
2017-07-23T12:20:28.222Z,3.00
2017-07-23T12:22:55.835Z,3.93
2017-07-23T12:25:23.355Z,2.60
2017-07-23T12:27:51.198Z,2.00
2017-07-23T12:30:19.493Z,2.50
2017-07-23T12:32:47.042Z,3.50
2017-07-23T12:35:15.329Z,2.47
2017-07-23T12:37:42.927Z,2.30
2017-07-23T12:40:10.503Z,2.40
2017-07-23T12:42:38.030Z,2.07
2017-07-23T12:45:05.502Z,2.80
2017-07-23T12:47:33.122Z,2.33
2017-07-23T12:50:00.780Z,2.50
2017-07-23T12:52:28.351Z,2.57
2017-07-23T12:54:58.167Z,1.90
2017-07-23T12:57:25.776Z,2.10
2017-07-23T12:59:53.392Z,2.10
2017-07-23T13:02:20.957Z,2.13
2017-07-23T13:04:48.486Z,1.93
2017-07-23T13:07:15.971Z,2.17
2017-07-23T13:09:43.603Z,2.60
2017-07-23T13:12:11.076Z,2.47
2017-07-23T13:14:38.578Z,1.90
2017-07-23T13:17:06.103Z,2.50
2017-07-23T13:19:33.931Z,2.23
2017-07-23T13:22:01.490Z,2.80
2017-07-23T13:24:28.947Z,2.17
2017-07-23T13:26:56.403Z,2.50
2017-07-23T13:29:23.991Z,2.60
2017-07-23T13:31:51.505Z,2.50
2017-07-23T13:34:19.030Z,2.50
2017-07-23T13:36:46.642Z,1.80
2017-07-23T13:39:14.316Z,2.03
2017-07-23T13:41:42.153Z,1.90
2017-07-23T13:44:09.662Z,2.27
2017-07-23T13:46:37.291Z,1.90
2017-07-23T13:49:04.749Z,2.60
2017-07-23T13:51:32.255Z,2.77
2017-07-23T13:53:59.767Z,2.57
2017-07-23T13:56:27.203Z,2.33
2017-07-23T13:58:54.721Z,2.40
2017-07-23T14:01:22.202Z,2.20
2017-07-23T14:03:50.941Z,2.00
2017-07-23T14:06:18.636Z,2.03
2017-07-23T14:08:46.272Z,2.93
2017-07-23T14:11:14.096Z,2.10
2017-07-23T14:13:41.682Z,2.53
2017-07-23T14:16:09.204Z,1.93
2017-07-23T14:18:37.797Z,2.80
2017-07-23T14:21:05.361Z,3.00
2017-07-23T14:23:32.908Z,2.50
2017-07-23T14:26:01.938Z,2.50
2017-07-23T14:28:29.452Z,2.50
2017-07-23T14:30:56.918Z,3.60
2017-07-23T14:33:24.408Z,2.90
2017-07-23T14:35:52.134Z,2.73
2017-07-23T14:38:19.683Z,2.40
2017-07-23T14:40:47.167Z,2.13
2017-07-23T14:43:14.652Z,2.70
2017-07-23T14:45:42.412Z,2.83
2017-07-23T14:48:09.931Z,2.43
2017-07-23T14:50:38.287Z,2.77
2017-07-23T14:53:05.788Z,3.43
2017-07-23T14:55:33.681Z,3.13
2017-07-23T14:58:01.148Z,2.40
2017-07-23T15:00:28.796Z,2.60
2017-07-23T15:02:56.347Z,2.70
2017-07-23T15:05:24.688Z,2.40
2017-07-23T15:07:52.167Z,2.67
2017-07-23T15:10:19.622Z,4.03
2017-07-23T15:12:48.706Z,3.90
2017-07-23T15:15:16.166Z,3.40
2017-07-23T15:17:43.783Z,3.60
2017-07-23T15:20:11.244Z,5.80
2017-07-23T15:22:38.726Z,4.70
2017-07-23T15:25:06.251Z,3.73
2017-07-23T15:27:34.335Z,3.90
2017-07-23T15:30:01.829Z,5.77
2017-07-23T15:32:29.290Z,4.60
2017-07-23T15:34:56.887Z,4.40
2017-07-23T15:37:24.451Z,5.07
2017-07-23T15:39:52.001Z,4.33
2017-07-23T15:42:19.505Z,4.37
2017-07-23T15:44:47.859Z,4.53
2017-07-23T15:47:16.234Z,3.30
2017-07-23T15:49:43.845Z,3.13
2017-07-23T15:52:12.176Z,3.20
2017-07-23T15:54:42.752Z,4.57
2017-07-23T15:57:10.277Z,4.70
2017-07-23T15:59:38.748Z,4.83
2017-07-23T16:02:06.487Z,2.50
2017-07-23T16:04:37.607Z,3.73
2017-07-23T16:07:08.107Z,2.70
2017-07-23T16:09:37.951Z,2.40
2017-07-23T16:12:08.682Z,2.33
2017-07-23T16:14:37.602Z,2.40
2017-07-23T16:17:05.204Z,3.30
2017-07-23T16:24:57.651Z,3.57
2017-07-23T16:36:14.897Z,1.73
2017-07-23T16:38:44.742Z,2.27
2017-07-23T16:41:13.465Z,2.40
2017-07-23T16:43:42.428Z,2.20
2017-07-23T16:46:14.252Z,2.23
2017-07-23T16:51:22.913Z,2.10
2017-07-23T16:53:50.591Z,2.40
2017-07-23T16:56:18.883Z,2.80
2017-07-23T16:58:50.230Z,2.43
2017-07-23T17:06:34.645Z,5.30
2017-07-23T17:09:04.612Z,5.13
2017-07-23T17:11:33.363Z,4.23
2017-07-23T17:14:00.863Z,3.40
2017-07-23T17:16:28.367Z,3.20
2017-07-23T17:18:59.906Z,2.73
2017-07-23T17:24:01.563Z,3.20
2017-07-23T17:26:29.154Z,3.80
2017-07-23T17:28:58.035Z,2.60
2017-07-23T17:31:25.763Z,2.50
2017-07-23T17:33:53.990Z,2.67
2017-07-23T17:36:24.682Z,3.80
2017-07-23T17:38:56.009Z,3.70
2017-07-23T17:41:26.010Z,4.70
2017-07-23T17:43:53.700Z,3.33
2017-07-23T17:49:02.419Z,3.57
2017-07-23T17:51:30.081Z,4.03
2017-07-23T17:53:57.632Z,3.80
2017-07-23T17:56:28.848Z,3.30
2017-07-23T17:58:57.088Z,3.43
2017-07-23T18:01:24.737Z,3.37
2017-07-23T18:03:52.497Z,3.53
2017-07-23T18:06:20.860Z,4.30
2017-07-23T18:08:48.320Z,2.77
2017-07-23T18:11:15.859Z,3.97
2017-07-23T18:13:44.853Z,3.77
2017-07-23T18:16:12.386Z,2.50
2017-07-23T18:18:40.162Z,2.43
2017-07-23T18:21:07.938Z,2.60
2017-07-23T18:23:35.676Z,2.43
2017-07-23T18:26:04.414Z,3.40
2017-07-23T18:28:35.793Z,4.07
2017-07-23T18:31:03.448Z,2.80
2017-07-23T18:33:31.059Z,2.03
2017-07-23T18:35:59.394Z,2.00
2017-07-23T18:38:27.630Z,1.97
2017-07-23T18:40:56.704Z,1.70
2017-07-23T18:43:24.755Z,2.50
2017-07-23T18:45:56.385Z,2.20
2017-07-23T18:48:24.091Z,2.30
2017-07-23T18:50:52.962Z,2.27
2017-07-23T18:53:22.239Z,1.90
2017-07-23T18:55:49.933Z,1.90
2017-07-23T19:00:56.132Z,2.43
2017-07-23T19:03:24.032Z,3.17
2017-07-23T19:05:53.704Z,2.00
2017-07-23T19:08:28.290Z,1.97
2017-07-23T19:13:37.310Z,1.73
2017-07-23T19:16:07.083Z,2.07
2017-07-23T19:18:35.694Z,1.90
2017-07-23T19:21:04.053Z,2.13
2017-07-23T19:23:31.571Z,2.50
2017-07-23T19:25:59.211Z,2.50
2017-07-23T19:28:31.581Z,2.60
2017-07-23T19:30:59.988Z,2.27
2017-07-23T19:33:29.057Z,2.10
2017-07-23T19:35:57.941Z,3.07
2017-07-23T19:38:27.133Z,2.67
2017-07-23T19:40:54.615Z,2.60
2017-07-23T19:43:22.156Z,2.30
2017-07-23T19:45:49.942Z,4.73
2017-07-23T19:48:18.613Z,2.27
2017-07-23T19:50:46.565Z,2.20
2017-07-23T19:53:14.146Z,2.90
2017-07-23T19:55:41.743Z,2.40
2017-07-23T19:58:09.267Z,2.60
2017-07-23T20:00:36.770Z,2.57
2017-07-23T20:03:04.339Z,2.70
2017-07-23T20:05:31.832Z,2.17
2017-07-23T20:07:59.635Z,2.57
2017-07-23T20:10:28.385Z,2.20
2017-07-23T20:12:58.467Z,2.20
2017-07-23T20:15:26.088Z,2.03
2017-07-23T20:17:54.409Z,2.90
2017-07-23T20:20:22.008Z,2.40
2017-07-23T20:22:50.060Z,2.17
2017-07-23T20:25:17.544Z,2.30
2017-07-23T20:27:44.999Z,2.30
2017-07-23T20:30:12.614Z,2.40
2017-07-23T20:32:40.583Z,2.70
2017-07-23T20:35:08.317Z,2.40
2017-07-23T20:37:35.896Z,39.37
2017-07-23T20:40:04.520Z,2.33
2017-07-23T20:42:32.119Z,2.30
2017-07-23T20:45:00.711Z,2.17
2017-07-23T20:47:34.032Z,2.17
2017-07-23T20:50:01.581Z,2.50
2017-07-23T20:52:29.350Z,2.63
2017-07-23T20:54:58.659Z,2.27
2017-07-23T20:57:26.238Z,2.30
2017-07-23T20:59:55.307Z,3.23
2017-07-23T21:02:24.835Z,2.67
2017-07-23T21:10:18.045Z,2.70
2017-07-23T21:12:49.052Z,2.57
2017-07-23T21:15:18.157Z,2.50
2017-07-23T21:17:45.809Z,2.63
2017-07-23T21:20:18.331Z,2.43
2017-07-23T21:22:58.288Z,2.30
2017-07-23T21:25:29.102Z,2.50
2017-07-23T21:28:01.418Z,2.63
2017-07-23T21:30:30.977Z,4.90
2017-07-23T21:33:02.359Z,2.97
2017-07-23T21:35:33.226Z,3.03
2017-07-23T21:38:17.840Z,2.60
2017-07-23T21:40:55.034Z,2.97
2017-07-23T21:43:25.764Z,3.07
2017-07-23T21:45:58.107Z,2.70
2017-07-23T21:48:26.238Z,2.80
2017-07-23T21:53:40.687Z,2.90
2017-07-23T21:56:11.616Z,2.93
2017-07-23T21:58:39.175Z,2.97
2017-07-23T22:01:09.807Z,2.93
2017-07-23T22:03:38.304Z,3.70
2017-07-23T22:06:09.691Z,2.73
2017-07-23T22:08:37.999Z,2.60
2017-07-23T22:11:05.548Z,3.27
2017-07-23T22:13:33.084Z,2.87
2017-07-23T22:16:00.648Z,3.10
2017-07-23T22:18:28.101Z,2.83
2017-07-23T22:20:55.922Z,3.00
2017-07-23T22:23:27.089Z,3.17
2017-07-23T22:25:54.726Z,3.17
2017-07-23T22:28:22.475Z,2.80
2017-07-23T22:30:57.751Z,2.80
2017-07-23T22:33:32.957Z,2.43
2017-07-23T22:36:00.521Z,2.90
2017-07-23T22:38:29.665Z,2.83
2017-07-23T22:40:59.477Z,3.20
2017-07-23T22:43:29.861Z,2.50
2017-07-23T22:45:57.533Z,2.47
2017-07-23T22:48:26.351Z,2.93
2017-07-23T22:50:54.632Z,3.07
2017-07-23T22:53:22.893Z,3.10
2017-07-23T22:55:50.512Z,2.97
2017-07-23T22:58:18.064Z,2.93
2017-07-23T23:00:45.703Z,3.13
2017-07-23T23:03:13.505Z,3.00
2017-07-23T23:05:41.811Z,3.00
2017-07-23T23:08:09.349Z,3.13
2017-07-23T23:10:36.920Z,2.70
2017-07-23T23:13:04.429Z,3.07
2017-07-23T23:15:32.956Z,2.83
2017-07-23T23:18:01.599Z,2.77
2017-07-23T23:20:29.079Z,3.33
2017-07-23T23:22:56.595Z,3.10
2017-07-23T23:25:25.052Z,3.00
2017-07-23T23:27:53.440Z,3.10
2017-07-23T23:30:21.722Z,2.80
2017-07-23T23:32:49.303Z,2.80
2017-07-23T23:35:17.419Z,3.23
2017-07-23T23:37:45.764Z,2.87
2017-07-23T23:40:14.588Z,3.00
2017-07-23T23:42:42.071Z,3.00
2017-07-23T23:45:10.866Z,3.17
2017-07-23T23:47:40.878Z,2.97
2017-07-23T23:50:08.424Z,3.00
2017-07-23T23:52:35.991Z,3.17
2017-07-23T23:55:04.277Z,2.90
2017-07-23T23:57:32.517Z,3.20
